sensor_id;sensor_type;location;lat;lon;timestamp;temperature;humidity
53520;DHT22;39397;53.204;5.778;2022-11-25T00:01:25;8.60;99.90
53520;DHT22;39397;53.204;5.778;2022-11-25T00:03:53;8.40;99.90
53520;DHT22;39397;53.204;5.778;2022-11-25T00:06:21;8.70;99.90
53520;DHT22;39397;53.204;5.778;2022-11-25T00:08:50;9.80;99.90
53520;DHT22;39397;53.204;5.778;2022-11-25T00:11:16;8.20;99.90
53520;DHT22;39397;53.204;5.778;2022-11-25T00:13:43;9.80;99.90
53520;DHT22;39397;53.204;5.778;2022-11-25T00:16:15;9.60;99.90
53520;DHT22;39397;53.204;5.778;2022-11-25T00:18:48;8.10;99.90
53520;DHT22;39397;53.204;5.778;2022-11-25T00:21:17;9.60;99.90
53520;DHT22;39397;53.204;5.778;2022-11-25T00:23:43;8.50;99.90
53520;DHT22;39397;53.204;5.778;2022-11-25T00:26:11;9.90;99.90
53520;DHT22;39397;53.204;5.778;2022-11-25T00:28:38;8.20;99.90
53520;DHT22;39397;53.204;5.778;2022-11-25T00:31:12;8.20;99.90
53520;DHT22;39397;53.204;5.778;2022-11-25T00:33:38;8.00;99.90
53520;DHT22;39397;53.204;5.778;2022-11-25T00:36:05;8.50;99.90
53520;DHT22;39397;53.204;5.778;2022-11-25T00:38:31;8.10;99.90
53520;DHT22;39397;53.204;5.778;2022-11-25T00:40:57;8.20;99.90
53520;DHT22;39397;53.204;5.778;2022-11-25T00:43:41;8.00;99.90
53520;DHT22;39397;53.204;5.778;2022-11-25T00:46:26;8.20;99.90
53520;DHT22;39397;53.204;5.778;2022-11-25T00:48:51;9.30;99.90
53520;DHT22;39397;53.204;5.778;2022-11-25T00:51:17;8.30;99.90
53520;DHT22;39397;53.204;5.778;2022-11-25T00:53:43;8.00;99.90
53520;DHT22;39397;53.204;5.778;2022-11-25T00:56:09;8.30;99.90
53520;DHT22;39397;53.204;5.778;2022-11-25T00:58:38;9.10;99.90
53520;DHT22;39397;53.204;5.778;2022-11-25T01:01:04;8.20;99.90
53520;DHT22;39397;53.204;5.778;2022-11-25T01:03:30;10.00;99.90
53520;DHT22;39397;53.204;5.778;2022-11-25T01:06:22;8.20;99.90
53520;DHT22;39397;53.204;5.778;2022-11-25T01:08:48;8.30;99.90
53520;DHT22;39397;53.204;5.778;2022-11-25T01:11:17;8.30;99.90
53520;DHT22;39397;53.204;5.778;2022-11-25T01:13:43;8.10;99.90
53520;DHT22;39397;53.204;5.778;2022-11-25T01:16:11;8.10;99.90
53520;DHT22;39397;53.204;5.778;2022-11-25T01:18:38;10.00;99.90
53520;DHT22;39397;53.204;5.778;2022-11-25T01:21:12;8.60;99.90
53520;DHT22;39397;53.204;5.778;2022-11-25T01:23:39;9.50;99.90
53520;DHT22;39397;53.204;5.778;2022-11-25T01:26:09;8.40;99.90
53520;DHT22;39397;53.204;5.778;2022-11-25T01:28:35;8.20;99.90
53520;DHT22;39397;53.204;5.778;2022-11-25T01:31:07;8.30;99.90
53520;DHT22;39397;53.204;5.778;2022-11-25T01:33:33;8.80;99.90
53520;DHT22;39397;53.204;5.778;2022-11-25T01:36:04;8.60;99.90
53520;DHT22;39397;53.204;5.778;2022-11-25T01:38:31;8.10;99.90
53520;DHT22;39397;53.204;5.778;2022-11-25T01:40:58;8.30;99.90
53520;DHT22;39397;53.204;5.778;2022-11-25T01:43:24;9.40;99.90
53520;DHT22;39397;53.204;5.778;2022-11-25T01:45:52;8.20;99.90
53520;DHT22;39397;53.204;5.778;2022-11-25T01:48:24;9.30;99.90
53520;DHT22;39397;53.204;5.778;2022-11-25T01:50:50;8.30;99.90
53520;DHT22;39397;53.204;5.778;2022-11-25T01:53:18;8.80;99.90
53520;DHT22;39397;53.204;5.778;2022-11-25T01:55:53;8.10;99.90
53520;DHT22;39397;53.204;5.778;2022-11-25T01:58:29;9.20;99.90
53520;DHT22;39397;53.204;5.778;2022-11-25T02:00:57;8.30;99.90
53520;DHT22;39397;53.204;5.778;2022-11-25T02:03:28;8.90;99.90
53520;DHT22;39397;53.204;5.778;2022-11-25T02:05:59;8.80;99.90
53520;DHT22;39397;53.204;5.778;2022-11-25T02:08:28;8.30;99.90
53520;DHT22;39397;53.204;5.778;2022-11-25T02:10:54;8.90;99.90
53520;DHT22;39397;53.204;5.778;2022-11-25T02:13:21;9.30;99.90
53520;DHT22;39397;53.204;5.778;2022-11-25T02:15:48;8.20;99.90
53520;DHT22;39397;53.204;5.778;2022-11-25T02:18:14;8.20;99.90
53520;DHT22;39397;53.204;5.778;2022-11-25T02:20:40;8.80;99.90
53520;DHT22;39397;53.204;5.778;2022-11-25T02:23:25;8.20;99.90
53520;DHT22;39397;53.204;5.778;2022-11-25T02:25:53;8.20;99.90
53520;DHT22;39397;53.204;5.778;2022-11-25T02:28:22;8.20;99.90
53520;DHT22;39397;53.204;5.778;2022-11-25T02:30:49;8.00;99.90
53520;DHT22;39397;53.204;5.778;2022-11-25T02:33:16;8.60;99.90
53520;DHT22;39397;53.204;5.778;2022-11-25T02:36:10;9.50;99.90
53520;DHT22;39397;53.204;5.778;2022-11-25T02:41:32;8.10;99.90
53520;DHT22;39397;53.204;5.778;2022-11-25T02:43:59;8.30;99.90
53520;DHT22;39397;53.204;5.778;2022-11-25T02:46:27;8.50;99.90
53520;DHT22;39397;53.204;5.778;2022-11-25T02:48:54;8.90;99.90
53520;DHT22;39397;53.204;5.778;2022-11-25T02:51:23;8.20;99.90
53520;DHT22;39397;53.204;5.778;2022-11-25T02:53:49;8.10;99.90
53520;DHT22;39397;53.204;5.778;2022-11-25T02:56:18;9.80;99.90
53520;DHT22;39397;53.204;5.778;2022-11-25T02:58:44;8.10;99.90
53520;DHT22;39397;53.204;5.778;2022-11-25T03:01:10;8.10;99.90
53520;DHT22;39397;53.204;5.778;2022-11-25T03:03:36;8.10;99.90
53520;DHT22;39397;53.204;5.778;2022-11-25T03:06:02;8.20;99.90
53520;DHT22;39397;53.204;5.778;2022-11-25T03:08:28;8.30;99.90
53520;DHT22;39397;53.204;5.778;2022-11-25T03:10:54;8.10;99.90
53520;DHT22;39397;53.204;5.778;2022-11-25T03:13:20;9.10;99.90
53520;DHT22;39397;53.204;5.778;2022-11-25T03:15:46;9.10;99.90
53520;DHT22;39397;53.204;5.778;2022-11-25T03:18:12;8.20;99.90
53520;DHT22;39397;53.204;5.778;2022-11-25T03:20:38;9.40;99.90
53520;DHT22;39397;53.204;5.778;2022-11-25T03:23:05;8.10;99.90
53520;DHT22;39397;53.204;5.778;2022-11-25T03:25:31;9.30;99.90
53520;DHT22;39397;53.204;5.778;2022-11-25T03:27:57;8.70;99.90
53520;DHT22;39397;53.204;5.778;2022-11-25T03:30:24;8.20;99.90
53520;DHT22;39397;53.204;5.778;2022-11-25T03:32:50;8.20;99.90
53520;DHT22;39397;53.204;5.778;2022-11-25T03:35:16;8.80;99.90
53520;DHT22;39397;53.204;5.778;2022-11-25T03:37:43;8.20;99.90
53520;DHT22;39397;53.204;5.778;2022-11-25T03:40:11;9.80;99.90
53520;DHT22;39397;53.204;5.778;2022-11-25T03:42:37;8.20;99.90
53520;DHT22;39397;53.204;5.778;2022-11-25T03:45:03;8.30;99.90
53520;DHT22;39397;53.204;5.778;2022-11-25T03:47:29;8.30;99.90
53520;DHT22;39397;53.204;5.778;2022-11-25T03:49:54;8.40;99.90
53520;DHT22;39397;53.204;5.778;2022-11-25T03:52:20;8.50;99.90
53520;DHT22;39397;53.204;5.778;2022-11-25T03:54:46;8.70;99.90
53520;DHT22;39397;53.204;5.778;2022-11-25T03:57:12;8.30;99.90
53520;DHT22;39397;53.204;5.778;2022-11-25T03:59:37;9.30;99.90
53520;DHT22;39397;53.204;5.778;2022-11-25T04:02:03;9.40;99.90
53520;DHT22;39397;53.204;5.778;2022-11-25T04:04:29;8.40;99.90
53520;DHT22;39397;53.204;5.778;2022-11-25T04:06:54;8.40;99.90
53520;DHT22;39397;53.204;5.778;2022-11-25T04:09:20;8.80;99.90
53520;DHT22;39397;53.204;5.778;2022-11-25T04:11:46;8.50;99.90
53520;DHT22;39397;53.204;5.778;2022-11-25T04:14:30;8.40;99.90
53520;DHT22;39397;53.204;5.778;2022-11-25T04:16:56;8.40;99.90
53520;DHT22;39397;53.204;5.778;2022-11-25T04:19:21;9.90;99.90
53520;DHT22;39397;53.204;5.778;2022-11-25T04:21:47;9.70;99.90
53520;DHT22;39397;53.204;5.778;2022-11-25T04:24:13;9.80;99.90
53520;DHT22;39397;53.204;5.778;2022-11-25T04:26:39;9.00;99.90
53520;DHT22;39397;53.204;5.778;2022-11-25T04:29:05;8.30;99.90
53520;DHT22;39397;53.204;5.778;2022-11-25T04:31:30;9.40;99.90
53520;DHT22;39397;53.204;5.778;2022-11-25T04:33:57;9.10;99.90
53520;DHT22;39397;53.204;5.778;2022-11-25T04:36:22;8.50;99.90
53520;DHT22;39397;53.204;5.778;2022-11-25T04:38:48;9.20;99.90
53520;DHT22;39397;53.204;5.778;2022-11-25T04:41:14;8.30;99.90
53520;DHT22;39397;53.204;5.778;2022-11-25T04:43:40;10.50;99.90
53520;DHT22;39397;53.204;5.778;2022-11-25T04:46:06;8.90;99.90
53520;DHT22;39397;53.204;5.778;2022-11-25T04:48:32;8.40;99.90
53520;DHT22;39397;53.204;5.778;2022-11-25T04:50:58;9.40;99.90
53520;DHT22;39397;53.204;5.778;2022-11-25T04:53:23;8.40;99.90
53520;DHT22;39397;53.204;5.778;2022-11-25T04:55:49;8.60;99.90
53520;DHT22;39397;53.204;5.778;2022-11-25T04:58:15;8.20;99.90
53520;DHT22;39397;53.204;5.778;2022-11-25T05:01:01;8.20;99.90
53520;DHT22;39397;53.204;5.778;2022-11-25T05:03:26;8.20;99.90
53520;DHT22;39397;53.204;5.778;2022-11-25T05:05:53;8.10;99.90
53520;DHT22;39397;53.204;5.778;2022-11-25T05:08:19;9.20;99.90
53520;DHT22;39397;53.204;5.778;2022-11-25T05:10:45;8.90;99.90
53520;DHT22;39397;53.204;5.778;2022-11-25T05:13:11;8.10;99.90
53520;DHT22;39397;53.204;5.778;2022-11-25T05:15:37;8.10;99.90
53520;DHT22;39397;53.204;5.778;2022-11-25T05:18:04;8.20;99.90
53520;DHT22;39397;53.204;5.778;2022-11-25T05:20:32;8.20;99.90
53520;DHT22;39397;53.204;5.778;2022-11-25T05:22:57;8.20;99.90
53520;DHT22;39397;53.204;5.778;2022-11-25T05:25:23;9.60;99.90
53520;DHT22;39397;53.204;5.778;2022-11-25T05:27:51;7.70;99.90
53520;DHT22;39397;53.204;5.778;2022-11-25T05:30:17;8.10;99.90
53520;DHT22;39397;53.204;5.778;2022-11-25T05:32:42;8.10;99.90
53520;DHT22;39397;53.204;5.778;2022-11-25T05:35:09;8.10;99.90
53520;DHT22;39397;53.204;5.778;2022-11-25T05:37:35;8.40;99.90
53520;DHT22;39397;53.204;5.778;2022-11-25T05:40:01;8.20;99.90
53520;DHT22;39397;53.204;5.778;2022-11-25T05:42:28;8.20;99.90
53520;DHT22;39397;53.204;5.778;2022-11-25T05:44:54;8.20;99.90
53520;DHT22;39397;53.204;5.778;2022-11-25T05:47:21;8.20;99.90
53520;DHT22;39397;53.204;5.778;2022-11-25T05:49:47;8.70;99.90
53520;DHT22;39397;53.204;5.778;2022-11-25T05:52:13;8.40;99.90
53520;DHT22;39397;53.204;5.778;2022-11-25T05:54:38;8.40;99.90
53520;DHT22;39397;53.204;5.778;2022-11-25T05:57:04;8.40;99.90
53520;DHT22;39397;53.204;5.778;2022-11-25T05:59:30;8.40;99.90
53520;DHT22;39397;53.204;5.778;2022-11-25T06:01:56;8.50;99.90
53520;DHT22;39397;53.204;5.778;2022-11-25T06:04:21;8.40;99.90
53520;DHT22;39397;53.204;5.778;2022-11-25T06:06:47;8.50;99.90
53520;DHT22;39397;53.204;5.778;2022-11-25T06:09:13;8.50;99.90
53520;DHT22;39397;53.204;5.778;2022-11-25T06:11:40;8.40;99.90
53520;DHT22;39397;53.204;5.778;2022-11-25T06:14:06;8.50;99.90
53520;DHT22;39397;53.204;5.778;2022-11-25T06:16:32;8.50;99.90
53520;DHT22;39397;53.204;5.778;2022-11-25T06:18:58;8.30;99.90
53520;DHT22;39397;53.204;5.778;2022-11-25T06:21:25;8.50;99.90
53520;DHT22;39397;53.204;5.778;2022-11-25T06:23:51;8.50;99.90
53520;DHT22;39397;53.204;5.778;2022-11-25T06:26:20;8.60;99.90
53520;DHT22;39397;53.204;5.778;2022-11-25T06:28:46;8.60;99.90
53520;DHT22;39397;53.204;5.778;2022-11-25T06:31:18;9.80;99.90
53520;DHT22;39397;53.204;5.778;2022-11-25T06:33:49;8.50;99.90
53520;DHT22;39397;53.204;5.778;2022-11-25T06:36:18;8.40;99.90
53520;DHT22;39397;53.204;5.778;2022-11-25T06:38:50;8.40;99.90
53520;DHT22;39397;53.204;5.778;2022-11-25T06:41:16;8.60;99.90
53520;DHT22;39397;53.204;5.778;2022-11-25T06:43:42;8.40;99.90
53520;DHT22;39397;53.204;5.778;2022-11-25T06:46:10;7.70;99.90
53520;DHT22;39397;53.204;5.778;2022-11-25T06:48:37;8.10;99.90
53520;DHT22;39397;53.204;5.778;2022-11-25T06:51:05;8.00;99.90
53520;DHT22;39397;53.204;5.778;2022-11-25T06:53:32;8.00;99.90
53520;DHT22;39397;53.204;5.778;2022-11-25T06:56:08;7.90;99.90
53520;DHT22;39397;53.204;5.778;2022-11-25T06:58:35;7.80;99.90
53520;DHT22;39397;53.204;5.778;2022-11-25T07:01:04;7.70;99.90
53520;DHT22;39397;53.204;5.778;2022-11-25T07:03:30;7.70;99.90
53520;DHT22;39397;53.204;5.778;2022-11-25T07:05:57;7.80;99.90
53520;DHT22;39397;53.204;5.778;2022-11-25T07:08:24;8.50;99.90
53520;DHT22;39397;53.204;5.778;2022-11-25T07:10:51;7.60;99.90
53520;DHT22;39397;53.204;5.778;2022-11-25T07:13:18;8.00;99.90
53520;DHT22;39397;53.204;5.778;2022-11-25T07:15:45;7.40;99.90
53520;DHT22;39397;53.204;5.778;2022-11-25T07:18:10;7.80;99.90
53520;DHT22;39397;53.204;5.778;2022-11-25T07:20:38;8.40;99.90
53520;DHT22;39397;53.204;5.778;2022-11-25T07:23:03;7.50;99.90
53520;DHT22;39397;53.204;5.778;2022-11-25T07:25:31;7.80;99.90
53520;DHT22;39397;53.204;5.778;2022-11-25T07:27:57;8.40;99.90
53520;DHT22;39397;53.204;5.778;2022-11-25T07:30:24;8.60;99.90
53520;DHT22;39397;53.204;5.778;2022-11-25T07:32:51;7.40;99.90
53520;DHT22;39397;53.204;5.778;2022-11-25T07:35:20;9.00;99.90
53520;DHT22;39397;53.204;5.778;2022-11-25T07:37:49;7.10;99.90
53520;DHT22;39397;53.204;5.778;2022-11-25T07:40:15;7.30;99.90
53520;DHT22;39397;53.204;5.778;2022-11-25T07:42:40;7.30;99.90
53520;DHT22;39397;53.204;5.778;2022-11-25T07:45:06;7.30;99.90
53520;DHT22;39397;53.204;5.778;2022-11-25T07:47:33;7.30;99.90
53520;DHT22;39397;53.204;5.778;2022-11-25T07:49:59;7.30;99.90
53520;DHT22;39397;53.204;5.778;2022-11-25T07:52:25;7.30;99.90
53520;DHT22;39397;53.204;5.778;2022-11-25T07:54:52;7.20;99.90
53520;DHT22;39397;53.204;5.778;2022-11-25T07:57:18;7.20;99.90
53520;DHT22;39397;53.204;5.778;2022-11-25T07:59:44;6.80;99.90
53520;DHT22;39397;53.204;5.778;2022-11-25T08:02:10;7.30;99.90
53520;DHT22;39397;53.204;5.778;2022-11-25T08:04:37;7.30;99.90
53520;DHT22;39397;53.204;5.778;2022-11-25T08:07:03;7.30;99.90
53520;DHT22;39397;53.204;5.778;2022-11-25T08:09:29;7.40;99.90
53520;DHT22;39397;53.204;5.778;2022-11-25T08:11:56;7.30;99.90
53520;DHT22;39397;53.204;5.778;2022-11-25T08:14:23;8.20;99.90
53520;DHT22;39397;53.204;5.778;2022-11-25T08:16:50;7.30;99.90
53520;DHT22;39397;53.204;5.778;2022-11-25T08:19:16;7.40;99.90
53520;DHT22;39397;53.204;5.778;2022-11-25T08:21:42;7.40;99.90
53520;DHT22;39397;53.204;5.778;2022-11-25T08:24:15;7.40;99.90
53520;DHT22;39397;53.204;5.778;2022-11-25T08:26:41;7.50;99.90
53520;DHT22;39397;53.204;5.778;2022-11-25T08:29:13;7.50;99.90
53520;DHT22;39397;53.204;5.778;2022-11-25T08:31:39;7.50;99.90
53520;DHT22;39397;53.204;5.778;2022-11-25T08:34:06;8.30;99.90
53520;DHT22;39397;53.204;5.778;2022-11-25T08:36:33;7.50;99.90
53520;DHT22;39397;53.204;5.778;2022-11-25T08:39:00;8.40;99.90
53520;DHT22;39397;53.204;5.778;2022-11-25T08:41:32;8.00;99.90
53520;DHT22;39397;53.204;5.778;2022-11-25T08:44:00;7.50;99.90
53520;DHT22;39397;53.204;5.778;2022-11-25T08:46:29;8.60;99.90
53520;DHT22;39397;53.204;5.778;2022-11-25T08:48:58;7.60;99.90
53520;DHT22;39397;53.204;5.778;2022-11-25T08:51:27;8.60;99.90
53520;DHT22;39397;53.204;5.778;2022-11-25T08:53:53;8.50;99.90
53520;DHT22;39397;53.204;5.778;2022-11-25T08:56:20;7.80;99.90
53520;DHT22;39397;53.204;5.778;2022-11-25T08:58:46;7.80;99.90
53520;DHT22;39397;53.204;5.778;2022-11-25T09:01:14;8.50;99.90
53520;DHT22;39397;53.204;5.778;2022-11-25T09:03:43;9.40;99.90
53520;DHT22;39397;53.204;5.778;2022-11-25T09:06:09;7.80;99.90
53520;DHT22;39397;53.204;5.778;2022-11-25T09:08:36;8.00;99.90
53520;DHT22;39397;53.204;5.778;2022-11-25T09:11:03;8.70;99.90
53520;DHT22;39397;53.204;5.778;2022-11-25T09:13:28;8.00;99.90
53520;DHT22;39397;53.204;5.778;2022-11-25T09:15:55;8.20;99.90
53520;DHT22;39397;53.204;5.778;2022-11-25T09:18:20;8.20;99.90
53520;DHT22;39397;53.204;5.778;2022-11-25T09:20:51;8.10;99.90
53520;DHT22;39397;53.204;5.778;2022-11-25T09:23:18;8.10;99.90
53520;DHT22;39397;53.204;5.778;2022-11-25T09:25:55;9.20;99.90
53520;DHT22;39397;53.204;5.778;2022-11-25T09:28:22;8.20;99.90
53520;DHT22;39397;53.204;5.778;2022-11-25T09:30:48;10.20;99.90
53520;DHT22;39397;53.204;5.778;2022-11-25T09:33:15;8.30;99.90
53520;DHT22;39397;53.204;5.778;2022-11-25T09:35:40;8.70;99.90
53520;DHT22;39397;53.204;5.778;2022-11-25T09:38:06;8.60;99.90
53520;DHT22;39397;53.204;5.778;2022-11-25T09:47:11;8.40;99.90
53520;DHT22;39397;53.204;5.778;2022-11-25T09:50:02;10.10;99.90
53520;DHT22;39397;53.204;5.778;2022-11-25T09:55:08;8.70;99.90
53520;DHT22;39397;53.204;5.778;2022-11-25T09:58:01;8.60;99.90
53520;DHT22;39397;53.204;5.778;2022-11-25T10:00:39;8.60;99.90
53520;DHT22;39397;53.204;5.778;2022-11-25T10:06:31;8.80;99.90
53520;DHT22;39397;53.204;5.778;2022-11-25T10:09:01;8.90;99.90
53520;DHT22;39397;53.204;5.778;2022-11-25T10:11:43;8.70;99.90
53520;DHT22;39397;53.204;5.778;2022-11-25T10:17:06;9.60;99.90
53520;DHT22;39397;53.204;5.778;2022-11-25T10:24:37;9.10;99.90
53520;DHT22;39397;53.204;5.778;2022-11-25T10:27:06;9.00;99.90
53520;DHT22;39397;53.204;5.778;2022-11-25T10:29:39;9.10;99.90
53520;DHT22;39397;53.204;5.778;2022-11-25T10:32:24;9.30;99.90
53520;DHT22;39397;53.204;5.778;2022-11-25T10:34:52;9.30;99.90
53520;DHT22;39397;53.204;5.778;2022-11-25T10:37:26;9.30;99.90
53520;DHT22;39397;53.204;5.778;2022-11-25T10:39:53;9.30;99.90
53520;DHT22;39397;53.204;5.778;2022-11-25T10:42:24;9.30;99.90
53520;DHT22;39397;53.204;5.778;2022-11-25T10:44:50;9.30;99.90
53520;DHT22;39397;53.204;5.778;2022-11-25T10:50:28;9.40;99.90
53520;DHT22;39397;53.204;5.778;2022-11-25T10:53:20;9.40;99.90
53520;DHT22;39397;53.204;5.778;2022-11-25T10:56:02;9.40;99.90
53520;DHT22;39397;53.204;5.778;2022-11-25T10:58:35;9.40;99.90
53520;DHT22;39397;53.204;5.778;2022-11-25T11:03:28;10.80;99.90
53520;DHT22;39397;53.204;5.778;2022-11-25T11:05:54;9.90;99.90
53520;DHT22;39397;53.204;5.778;2022-11-25T11:08:39;10.30;99.90
53520;DHT22;39397;53.204;5.778;2022-11-25T11:11:16;9.60;99.90
53520;DHT22;39397;53.204;5.778;2022-11-25T11:13:43;9.50;99.90
53520;DHT22;39397;53.204;5.778;2022-11-25T11:18:53;9.70;99.90
53520;DHT22;39397;53.204;5.778;2022-11-25T11:21:24;7.90;99.90
53520;DHT22;39397;53.204;5.778;2022-11-25T11:23:53;10.00;99.90
53520;DHT22;39397;53.204;5.778;2022-11-25T11:26:28;10.10;99.90
53520;DHT22;39397;53.204;5.778;2022-11-25T11:28:59;10.00;99.90
53520;DHT22;39397;53.204;5.778;2022-11-25T11:31:34;11.40;99.90
53520;DHT22;39397;53.204;5.778;2022-11-25T11:36:54;10.10;99.90
53520;DHT22;39397;53.204;5.778;2022-11-25T11:39:58;10.20;99.90
53520;DHT22;39397;53.204;5.778;2022-11-25T11:45:37;10.50;99.90
53520;DHT22;39397;53.204;5.778;2022-11-25T11:48:19;10.70;99.90
53520;DHT22;39397;53.204;5.778;2022-11-25T11:50:52;10.80;99.90
53520;DHT22;39397;53.204;5.778;2022-11-25T11:56:58;11.00;99.90
53520;DHT22;39397;53.204;5.778;2022-11-25T12:07:21;11.10;99.90
53520;DHT22;39397;53.204;5.778;2022-11-25T12:09:58;10.80;99.90
53520;DHT22;39397;53.204;5.778;2022-11-25T12:23:28;11.00;99.90
53520;DHT22;39397;53.204;5.778;2022-11-25T12:26:00;13.40;99.90
53520;DHT22;39397;53.204;5.778;2022-11-25T12:28:51;11.30;99.90
53520;DHT22;39397;53.204;5.778;2022-11-25T12:31:31;11.50;99.90
53520;DHT22;39397;53.204;5.778;2022-11-25T12:34:16;11.70;99.90
53520;DHT22;39397;53.204;5.778;2022-11-25T12:36:45;11.80;99.90
53520;DHT22;39397;53.204;5.778;2022-11-25T12:41:55;11.90;99.90
53520;DHT22;39397;53.204;5.778;2022-11-25T12:47:10;12.10;99.90
53520;DHT22;39397;53.204;5.778;2022-11-25T12:49:48;11.90;99.90
53520;DHT22;39397;53.204;5.778;2022-11-25T12:55:18;11.90;99.90
53520;DHT22;39397;53.204;5.778;2022-11-25T12:58:10;11.90;99.90
53520;DHT22;39397;53.204;5.778;2022-11-25T13:16:50;11.70;99.90
53520;DHT22;39397;53.204;5.778;2022-11-25T13:19:18;11.90;99.90
53520;DHT22;39397;53.204;5.778;2022-11-25T13:24:31;11.70;99.90
53520;DHT22;39397;53.204;5.778;2022-11-25T13:26:57;11.60;99.90
53520;DHT22;39397;53.204;5.778;2022-11-25T13:32:02;11.50;99.90
53520;DHT22;39397;53.204;5.778;2022-11-25T13:34:31;11.30;99.90
53520;DHT22;39397;53.204;5.778;2022-11-25T13:36:59;11.30;99.90
53520;DHT22;39397;53.204;5.778;2022-11-25T13:42:22;11.40;99.90
53520;DHT22;39397;53.204;5.778;2022-11-25T13:47:31;11.30;99.90
53520;DHT22;39397;53.204;5.778;2022-11-25T13:52:32;11.50;99.90
53520;DHT22;39397;53.204;5.778;2022-11-25T13:55:02;11.40;99.90
53520;DHT22;39397;53.204;5.778;2022-11-25T13:57:32;11.30;99.90
53520;DHT22;39397;53.204;5.778;2022-11-25T14:00:01;11.30;99.90
53520;DHT22;39397;53.204;5.778;2022-11-25T14:04:55;11.40;99.90
53520;DHT22;39397;53.204;5.778;2022-11-25T14:08:28;11.50;99.90
53520;DHT22;39397;53.204;5.778;2022-11-25T14:15:57;11.30;99.90
53520;DHT22;39397;53.204;5.778;2022-11-25T14:24:10;11.20;99.90
53520;DHT22;39397;53.204;5.778;2022-11-25T14:26:38;11.10;99.90
53520;DHT22;39397;53.204;5.778;2022-11-25T14:29:27;11.00;99.90
53520;DHT22;39397;53.204;5.778;2022-11-25T14:32:17;10.90;99.90
53520;DHT22;39397;53.204;5.778;2022-11-25T14:34:54;10.90;99.90
53520;DHT22;39397;53.204;5.778;2022-11-25T14:40:06;10.90;99.90
53520;DHT22;39397;53.204;5.778;2022-11-25T14:42:39;10.80;99.90
53520;DHT22;39397;53.204;5.778;2022-11-25T14:45:28;10.80;99.90
53520;DHT22;39397;53.204;5.778;2022-11-25T14:48:11;10.90;99.90
53520;DHT22;39397;53.204;5.778;2022-11-25T14:50:37;11.00;99.90
53520;DHT22;39397;53.204;5.778;2022-11-25T14:53:08;10.60;99.90
53520;DHT22;39397;53.204;5.778;2022-11-25T14:55:34;10.50;99.90
53520;DHT22;39397;53.204;5.778;2022-11-25T14:58:01;12.20;99.90
53520;DHT22;39397;53.204;5.778;2022-11-25T15:00:27;11.90;99.90
53520;DHT22;39397;53.204;5.778;2022-11-25T15:02:58;10.30;99.90
53520;DHT22;39397;53.204;5.778;2022-11-25T15:05:31;10.20;99.90
53520;DHT22;39397;53.204;5.778;2022-11-25T15:08:12;11.10;99.90
53520;DHT22;39397;53.204;5.778;2022-11-25T15:10:52;10.10;99.90
53520;DHT22;39397;53.204;5.778;2022-11-25T15:13:37;10.10;99.90
53520;DHT22;39397;53.204;5.778;2022-11-25T15:18:33;10.10;99.90
53520;DHT22;39397;53.204;5.778;2022-11-25T15:21:03;9.90;99.90
53520;DHT22;39397;53.204;5.778;2022-11-25T15:23:31;9.80;99.90
53520;DHT22;39397;53.204;5.778;2022-11-25T15:26:02;9.70;99.90
53520;DHT22;39397;53.204;5.778;2022-11-25T15:28:37;9.50;99.90
53520;DHT22;39397;53.204;5.778;2022-11-25T15:31:10;9.50;99.90
53520;DHT22;39397;53.204;5.778;2022-11-25T15:33:37;9.30;99.90
53520;DHT22;39397;53.204;5.778;2022-11-25T15:36:03;9.80;99.90
53520;DHT22;39397;53.204;5.778;2022-11-25T15:38:42;9.20;99.90
53520;DHT22;39397;53.204;5.778;2022-11-25T15:43:51;9.00;99.90
53520;DHT22;39397;53.204;5.778;2022-11-25T15:46:18;8.90;99.90
53520;DHT22;39397;53.204;5.778;2022-11-25T15:48:46;10.00;99.90
53520;DHT22;39397;53.204;5.778;2022-11-25T15:54:29;8.70;99.90
53520;DHT22;39397;53.204;5.778;2022-11-25T15:56:59;8.70;99.90
53520;DHT22;39397;53.204;5.778;2022-11-25T15:59:45;8.60;99.90
53520;DHT22;39397;53.204;5.778;2022-11-25T16:05:21;8.50;99.90
53520;DHT22;39397;53.204;5.778;2022-11-25T16:21:27;8.10;99.90
53520;DHT22;39397;53.204;5.778;2022-11-25T16:27:22;8.00;99.90
53520;DHT22;39397;53.204;5.778;2022-11-25T16:29:57;8.10;99.90
53520;DHT22;39397;53.204;5.778;2022-11-25T16:32:33;7.90;99.90
53520;DHT22;39397;53.204;5.778;2022-11-25T16:35:13;8.30;99.90
53520;DHT22;39397;53.204;5.778;2022-11-25T16:37:40;8.10;99.90
53520;DHT22;39397;53.204;5.778;2022-11-25T16:40:07;7.90;99.90
53520;DHT22;39397;53.204;5.778;2022-11-25T16:42:33;7.90;99.90
53520;DHT22;39397;53.204;5.778;2022-11-25T16:44:59;7.80;99.90
53520;DHT22;39397;53.204;5.778;2022-11-25T16:47:28;7.90;99.90
53520;DHT22;39397;53.204;5.778;2022-11-25T16:49:54;7.80;99.90
53520;DHT22;39397;53.204;5.778;2022-11-25T16:52:20;8.40;99.90
53520;DHT22;39397;53.204;5.778;2022-11-25T16:54:45;7.80;99.90
53520;DHT22;39397;53.204;5.778;2022-11-25T16:57:18;7.70;99.90
53520;DHT22;39397;53.204;5.778;2022-11-25T16:59:45;7.70;99.90
53520;DHT22;39397;53.204;5.778;2022-11-25T17:02:17;9.00;99.90
53520;DHT22;39397;53.204;5.778;2022-11-25T17:04:44;7.50;99.90
53520;DHT22;39397;53.204;5.778;2022-11-25T17:07:14;9.10;99.90
53520;DHT22;39397;53.204;5.778;2022-11-25T17:09:41;7.50;99.90
53520;DHT22;39397;53.204;5.778;2022-11-25T17:12:14;7.50;99.90
53520;DHT22;39397;53.204;5.778;2022-11-25T17:14:42;9.40;99.90
53520;DHT22;39397;53.204;5.778;2022-11-25T17:17:12;7.30;99.90
53520;DHT22;39397;53.204;5.778;2022-11-25T17:19:38;8.20;99.90
53520;DHT22;39397;53.204;5.778;2022-11-25T17:22:16;8.10;99.90
53520;DHT22;39397;53.204;5.778;2022-11-25T17:24:42;7.30;99.90
53520;DHT22;39397;53.204;5.778;2022-11-25T17:27:12;9.00;99.90
53520;DHT22;39397;53.204;5.778;2022-11-25T17:29:41;7.40;99.90
53520;DHT22;39397;53.204;5.778;2022-11-25T17:32:14;9.20;99.90
53520;DHT22;39397;53.204;5.778;2022-11-25T17:34:40;7.40;99.90
53520;DHT22;39397;53.204;5.778;2022-11-25T17:37:15;8.30;99.90
53520;DHT22;39397;53.204;5.778;2022-11-25T17:39:41;7.40;99.90
53520;DHT22;39397;53.204;5.778;2022-11-25T17:42:06;7.90;99.90
53520;DHT22;39397;53.204;5.778;2022-11-25T17:44:38;8.40;99.90
53520;DHT22;39397;53.204;5.778;2022-11-25T17:47:12;8.60;99.90
53520;DHT22;39397;53.204;5.778;2022-11-25T17:49:38;7.40;99.90
53520;DHT22;39397;53.204;5.778;2022-11-25T17:52:04;8.60;99.90
53520;DHT22;39397;53.204;5.778;2022-11-25T17:54:30;8.50;99.90
53520;DHT22;39397;53.204;5.778;2022-11-25T17:56:56;7.50;99.90
53520;DHT22;39397;53.204;5.778;2022-11-25T17:59:28;7.40;99.90
53520;DHT22;39397;53.204;5.778;2022-11-25T18:01:55;8.40;99.90
53520;DHT22;39397;53.204;5.778;2022-11-25T18:04:32;7.40;99.90
53520;DHT22;39397;53.204;5.778;2022-11-25T18:07:03;7.80;99.90
53520;DHT22;39397;53.204;5.778;2022-11-25T18:09:29;6.90;99.90
53520;DHT22;39397;53.204;5.778;2022-11-25T18:11:57;6.80;99.90
53520;DHT22;39397;53.204;5.778;2022-11-25T18:14:24;7.10;99.90
53520;DHT22;39397;53.204;5.778;2022-11-25T18:16:51;8.70;99.90
53520;DHT22;39397;53.204;5.778;2022-11-25T18:19:17;6.80;99.90